Time;durP1;ratioP1;P1;durP2;ratioP2;P2;SDS_P1;SDS_P2;PMS_P1;PMS_P2;Temp;Humidity;BMP_temperature;BMP_pressure;BME280_temperature;BME280_humidity;BME280_pressure;Samples;Min_cycle;Max_cycle;Signal;HPM_P1;HPM_P2
2023/05/10 00:01:11;;;;;;;10.05;4.95;;;;;;;7.72;100.00;100976.84;5009329;28;20405;-75
2023/05/10 00:03:36;;;;;;;8.18;5.15;;;;;;;7.98;100.00;101074.97;5010238;28;20083;-76
2023/05/10 00:06:02;;;;;;;6.22;3.80;;;;;;;7.19;100.00;100952.25;5002743;28;20474;-76
2023/05/10 00:08:27;;;;;;;7.63;5.40;;;;;;;7.70;100.00;101041.25;5008507;28;20539;-75
2023/05/10 00:10:53;;;;;;;9.75;5.18;;;;;;;7.86;100.00;101058.13;5009206;28;20153;-77
2023/05/10 00:13:18;;;;;;;8.77;4.97;;;;;;;7.07;100.00;100943.25;5008800;28;20741;-78
2023/05/10 00:15:44;;;;;;;7.68;5.93;;;;;;;7.73;100.00;101047.44;5000157;28;20473;-77
2023/05/10 00:18:09;;;;;;;6.65;4.68;;;;;;;7.51;100.00;101006.00;5009923;28;20053;-78
2023/05/10 00:20:35;;;;;;;7.97;5.68;;;;;;;7.74;100.00;101016.94;5024373;28;20401;-78
2023/05/10 00:23:00;;;;;;;9.60;5.15;;;;;;;7.54;100.00;101008.72;5030129;28;20429;-78
2023/05/10 00:25:26;;;;;;;7.13;4.30;;;;;;;7.45;100.00;101003.28;5025497;28;20390;-75
2023/05/10 00:27:51;;;;;;;7.22;4.25;;;;;;;7.30;100.00;100994.22;5022138;28;20117;-75
2023/05/10 00:30:17;;;;;;;0.60;0.50;;;;;;;7.39;100.00;101012.72;5025657;28;20041;-76
2023/05/10 00:32:43;;;;;;;2.50;2.17;;;;;;;7.22;100.00;101034.06;5029509;28;20045;-77
2023/05/10 00:35:09;;;;;;;8.90;5.05;;;;;;;7.04;100.00;100983.19;5026272;28;20148;-76
2023/05/10 00:37:35;;;;;;;7.82;4.88;;;;;;;7.18;100.00;101009.63;5031048;28;20052;-80
2023/05/10 00:40:00;;;;;;;7.72;4.70;;;;;;;7.06;100.00;100978.91;5030965;28;20029;-76
2023/05/10 00:42:26;;;;;;;7.75;4.35;;;;;;;7.27;100.00;101012.44;5031758;28;20548;-75
2023/05/10 00:44:51;;;;;;;1.52;1.05;;;;;;;6.93;100.00;100990.78;5029722;28;20038;-75
2023/05/10 00:47:17;;;;;;;2.75;1.95;;;;;;;6.59;100.00;100933.44;5031255;28;20052;-76
2023/05/10 00:49:43;;;;;;;7.00;4.85;;;;;;;6.25;100.00;100870.00;5024632;28;20481;-76
2023/05/10 00:52:09;;;;;;;7.70;4.80;;;;;;;6.71;100.00;100941.53;5043847;28;20045;-82
2023/05/10 00:54:35;;;;;;;8.80;5.60;;;;;;;6.76;100.00;100960.78;5029700;28;20807;-76
2023/05/10 00:57:01;;;;;;;1.77;1.05;;;;;;;6.54;100.00;100865.53;5013014;28;20065;-76
2023/05/10 00:59:26;;;;;;;2.42;1.58;;;;;;;7.02;100.00;100997.91;5010418;28;20034;-78
2023/05/10 01:01:53;;;;;;;7.80;4.90;;;;;;;6.41;100.00;100893.00;5006269;28;20038;-76
2023/05/10 01:04:21;;;;;;;1.70;0.88;;;;;;;6.09;100.00;100841.00;5012867;28;20045;-78
2023/05/10 01:06:47;;;;;;;1.65;1.48;;;;;;;6.29;100.00;100864.03;5030851;28;20038;-76
2023/05/10 01:09:12;;;;;;;7.88;5.60;;;;;;;6.28;100.00;100873.59;5030493;28;20042;-76
2023/05/10 01:11:39;;;;;;;1.15;1.02;;;;;;;6.86;100.00;100977.53;5017390;28;20187;-76
2023/05/10 01:14:06;;;;;;;7.38;5.25;;;;;;;6.92;100.00;100968.13;5023737;28;20452;-76
2023/05/10 01:16:41;;;;;;;7.57;4.70;;;;;;;6.67;100.00;100943.22;5029720;28;20053;-79
2023/05/10 01:19:26;;;;;;;7.35;5.28;;;;;;;6.87;100.00;100971.50;5028727;28;20033;-75
2023/05/10 01:22:18;;;;;;;0.88;0.75;;;;;;;6.87;100.00;100930.63;5029658;28;20048;-77
2023/05/10 01:24:44;;;;;;;2.88;1.25;;;;;;;7.25;100.00;100971.50;5029524;28;20046;-78
2023/05/10 01:27:12;;;;;;;11.15;5.03;;;;;;;6.95;100.00;100967.31;5028814;28;20098;-77
2023/05/10 01:29:59;;;;;;;6.70;4.93;;;;;;;6.93;100.00;100963.78;5029036;28;20696;-76
2023/05/10 01:32:37;;;;;;;2.78;2.58;;;;;;;7.00;100.00;100972.66;5027928;28;20046;-74
2023/05/10 01:35:26;;;;;;;1.75;1.20;;;;;;;7.36;100.00;100964.78;5029358;28;20045;-76
2023/05/10 01:38:27;;;;;;;1.40;1.05;;;;;;;7.48;100.00;100954.59;5011271;28;20073;-77
2023/05/10 01:41:17;;;;;;;0.80;0.75;;;;;;;6.70;100.00;100854.59;5014593;28;20056;-77
2023/05/10 01:43:51;;;;;;;1.98;1.17;;;;;;;7.21;100.00;100965.34;5032001;28;20454;-75
2023/05/10 01:46:24;;;;;;;8.68;5.53;;;;;;;6.30;100.00;100842.38;5012352;28;20038;-78
2023/05/10 01:48:55;;;;;;;0.77;0.50;;;;;;;6.84;100.00;100933.16;5024999;28;20033;-76
2023/05/10 01:51:25;;;;;;;7.57;5.13;;;;;;;6.65;100.00;100897.97;5031364;28;20125;-77
2023/05/10 01:53:56;;;;;;;9.38;5.88;;;;;;;6.20;100.00;100842.97;5030670;28;20080;-80
2023/05/10 01:56:26;;;;;;;8.48;5.72;;;;;;;7.04;100.00;100961.44;5030125;28;20044;-76
2023/05/10 01:58:53;;;;;;;0.90;0.70;;;;;;;7.16;100.00;100961.72;5031555;28;20080;-76
2023/05/10 02:01:21;;;;;;;7.80;6.05;;;;;;;6.72;100.00;100883.34;5027676;28;20029;-78
2023/05/10 02:03:49;;;;;;;9.82;6.00;;;;;;;7.04;100.00;100948.41;5017294;28;20068;-78
2023/05/10 02:06:18;;;;;;;7.20;4.60;;;;;;;7.21;100.00;100982.69;5025208;28;20041;-76
2023/05/10 02:08:46;;;;;;;9.02;6.60;;;;;;;6.40;100.00;100839.13;5027112;28;20079;-77
2023/05/10 02:11:13;;;;;;;11.35;6.60;;;;;;;6.28;100.00;100829.28;5030465;28;20057;-76
2023/05/10 02:13:41;;;;;;;10.15;5.97;;;;;;;6.38;100.00;100834.72;5026973;28;20140;-76
2023/05/10 02:16:17;;;;;;;1.40;0.95;;;;;;;7.02;100.00;100969.22;5029183;28;20041;-76
2023/05/10 02:18:43;;;;;;;8.05;4.88;;;;;;;7.07;100.00;100971.94;5030727;28;20033;-79
2023/05/10 02:21:10;;;;;;;14.68;6.45;;;;;;;6.26;100.00;100827.50;5010519;28;20506;-77
2023/05/10 02:23:37;;;;;;;7.72;6.32;;;;;;;6.80;100.00;100933.94;5002647;28;20498;-77
2023/05/10 02:26:05;;;;;;;11.52;6.32;;;;;;;7.08;100.00;100938.06;5017085;28;20115;-77
2023/05/10 02:28:32;;;;;;;9.55;5.97;;;;;;;7.12;100.00;100955.56;5028696;28;20144;-78
2023/05/10 02:30:58;;;;;;;1.83;1.65;;;;;;;6.55;100.00;100821.25;5029630;28;20033;-75
2023/05/10 02:33:24;;;;;;;0.65;0.57;;;;;;;7.24;100.00;100970.63;5015064;28;20122;-76
2023/05/10 02:35:51;;;;;;;8.20;6.47;;;;;;;6.49;100.00;100843.69;5034512;28;20503;-75
2023/05/10 02:38:20;;;;;;;9.05;5.57;;;;;;;6.44;100.00;100855.72;5039300;28;20045;-81
2023/05/10 02:40:47;;;;;;;10.82;5.82;;;;;;;6.67;100.00;100866.69;5030501;28;20048;-85
2023/05/10 02:43:16;;;;;;;9.63;5.45;;;;;;;7.03;100.00;100908.38;5027961;28;20099;-78
2023/05/10 02:45:43;;;;;;;11.88;6.38;;;;;;;6.55;100.00;100800.41;5033679;28;20432;-78
2023/05/10 02:48:08;;;;;;;1.45;1.15;;;;;;;6.38;100.00;100817.34;5020902;28;20045;-76
2023/05/10 02:50:35;;;;;;;9.68;7.05;;;;;;;6.81;100.00;100907.00;5026593;28;20128;-76
2023/05/10 02:53:10;;;;;;;8.98;5.43;;;;;;;6.43;100.00;100841.78;5023616;28;20052;-77
2023/05/10 02:55:41;;;;;;;11.18;5.82;;;;;;;6.27;100.00;100805.78;5013302;28;20351;-75
2023/05/10 02:58:07;;;;;;;8.32;6.57;;;;;;;6.92;100.00;100905.53;5012194;28;20049;-78
2023/05/10 03:00:32;;;;;;;8.70;5.80;;;;;;;7.49;100.00;100955.47;5007006;28;20029;-78
2023/05/10 03:02:58;;;;;;;9.10;5.57;;;;;;;6.90;100.00;100886.34;5011228;28;20505;-76
2023/05/10 03:05:24;;;;;;;8.30;5.32;;;;;;;7.44;100.00;100944.06;5012176;28;20774;-79
2023/05/10 03:07:50;;;;;;;9.40;6.70;;;;;;;6.73;100.00;100848.56;5010948;28;20172;-76
2023/05/10 03:10:16;;;;;;;9.55;6.50;;;;;;;7.28;100.00;100930.69;5012269;28;20045;-84
2023/05/10 03:13:02;;;;;;;9.73;5.72;;;;;;;7.43;100.00;100960.59;5011138;28;20040;-76
2023/05/10 03:16:05;;;;;;;1.40;0.90;;;;;;;7.71;100.00;100962.03;5002722;28;20061;-78
2023/05/10 03:18:56;;;;;;;1.48;1.38;;;;;;;7.95;100.00;100966.88;5011578;28;20049;-74
2023/05/10 03:21:26;;;;;;;9.30;5.85;;;;;;;6.92;100.00;100844.66;5000495;28;20054;-74
2023/05/10 03:23:56;;;;;;;9.52;5.55;;;;;;;7.54;100.00;100905.13;5011540;28;20050;-77
2023/05/10 03:26:25;;;;;;;9.43;6.43;;;;;;;7.33;100.00;100832.47;5000980;28;20046;-78
2023/05/10 03:28:52;;;;;;;9.27;6.25;;;;;;;7.67;100.00;100929.75;5011807;28;20030;-76
2023/05/10 03:31:18;;;;;;;8.60;5.70;;;;;;;7.27;100.00;100874.09;5002905;28;20039;-77
2023/05/10 03:33:51;;;;;;;9.57;6.55;;;;;;;7.72;100.00;100958.56;5025212;28;20033;-77
2023/05/10 03:36:17;;;;;;;9.55;6.13;;;;;;;7.01;100.00;100875.28;5011629;28;20046;-77
2023/05/10 03:38:43;;;;;;;9.35;6.30;;;;;;;7.86;100.00;100992.81;5012231;28;20129;-75
2023/05/10 03:41:08;;;;;;;9.48;5.93;;;;;;;7.39;100.00;100870.84;5011297;28;20049;-78
2023/05/10 03:43:34;;;;;;;8.10;5.97;;;;;;;7.61;100.00;100896.56;5006699;28;20034;-80
2023/05/10 03:46:04;;;;;;;9.90;6.45;;;;;;;7.67;100.00;100906.22;5009181;28;20061;-79
2023/05/10 03:48:31;;;;;;;10.15;5.47;;;;;;;8.19;100.00;100992.59;5010402;28;20033;-77
2023/05/10 03:50:57;;;;;;;13.15;6.00;;;;;;;8.48;100.00;101010.59;5010750;28;20049;-76
2023/05/10 03:53:22;;;;;;;10.93;5.32;;;;;;;7.78;100.00;100898.63;5002482;28;20050;-76
2023/05/10 03:55:48;;;;;;;10.23;6.20;;;;;;;8.45;100.00;100995.72;5011192;28;20037;-77
2023/05/10 03:58:13;;;;;;;8.43;6.13;;;;;;;8.53;100.00;100996.75;5012967;28;20053;-76
2023/05/10 04:00:43;;;;;;;11.30;6.50;;;;;;;8.73;100.00;101025.84;5013067;28;20069;-75
2023/05/10 04:03:09;;;;;;;7.45;4.95;;;;;;;8.73;100.00;101006.66;5019796;28;20064;-75
2023/05/10 04:05:35;;;;;;;9.30;5.63;;;;;;;8.25;100.00;100948.28;5027748;28;20049;-80
2023/05/10 04:08:01;;;;;;;8.98;6.28;;;;;;;8.92;100.00;101031.41;5011751;28;20052;-77
2023/05/10 04:10:26;;;;;;;8.85;5.40;;;;;;;8.99;100.00;101036.78;5010356;28;20046;-78
2023/05/10 04:12:52;;;;;;;8.45;5.72;;;;;;;8.13;100.00;100933.25;5007794;28;20034;-77
2023/05/10 04:15:17;;;;;;;10.02;5.60;;;;;;;8.85;100.00;101067.09;5020921;28;20041;-76
2023/05/10 04:17:43;;;;;;;9.05;5.78;;;;;;;9.02;100.00;101068.25;5030544;28;20579;-76
2023/05/10 04:20:09;;;;;;;7.93;5.57;;;;;;;7.77;100.00;100916.03;5029944;28;20049;-77
2023/05/10 04:22:34;;;;;;;8.95;6.43;;;;;;;8.58;100.00;101007.28;5029737;28;20040;-77
2023/05/10 04:25:00;;;;;;;7.50;4.40;;;;;;;8.56;100.00;101050.84;5045049;28;20038;-77
2023/05/10 04:27:25;;;;;;;9.25;5.03;;;;;;;8.15;100.00;100986.44;5045728;28;20393;-79
2023/05/10 04:29:51;;;;;;;8.32;6.10;;;;;;;8.19;100.00;101003.03;5035408;28;20049;-77
2023/05/10 04:32:17;;;;;;;6.93;4.25;;;;;;;8.30;100.00;100971.88;5036395;28;20045;-81
2023/05/10 04:34:43;;;;;;;10.32;5.32;;;;;;;9.27;100.00;101102.66;5031201;28;20348;-76
2023/05/10 04:37:08;;;;;;;8.32;4.47;;;;;;;9.25;100.00;101109.66;5030169;28;20111;-81
2023/05/10 04:39:34;;;;;;;9.30;5.15;;;;;;;9.15;100.00;101069.31;5038362;28;20120;-76
2023/05/10 04:42:00;;;;;;;7.18;4.53;;;;;;;9.45;100.00;101112.56;5031385;28;20083;-77
2023/05/10 04:44:26;;;;;;;6.68;5.10;;;;;;;8.62;100.00;100990.81;5046670;28;20029;-76
2023/05/10 04:46:51;;;;;;;7.60;6.43;;;;;;;9.17;100.00;101108.63;5026804;28;20092;-77
2023/05/10 04:49:17;;;;;;;13.13;5.40;;;;;;;8.76;100.00;101028.56;5031342;28;20033;-78
2023/05/10 04:51:43;;;;;;;11.90;5.68;;;;;;;9.51;100.00;101139.75;5035954;28;20025;-76
2023/05/10 04:54:08;;;;;;;8.90;5.03;;;;;;;9.50;100.00;101109.19;5041710;28;20038;-77
2023/05/10 04:56:34;;;;;;;9.77;4.95;;;;;;;8.93;100.00;100999.16;5022004;28;20044;-76
2023/05/10 04:58:59;;;;;;;13.85;4.22;;;;;;;9.56;100.00;101137.22;5028821;28;20049;-76
2023/05/10 05:01:25;;;;;;;6.80;4.68;;;;;;;9.69;100.00;101131.31;5024276;28;20743;-74
2023/05/10 05:03:52;;;;;;;8.63;4.30;;;;;;;8.68;100.00;101030.13;5009823;28;20065;-79
2023/05/10 05:06:20;;;;;;;12.18;5.72;;;;;;;9.37;100.00;101124.69;5005629;28;20430;-78
2023/05/10 05:08:46;;;;;;;7.57;5.47;;;;;;;9.78;100.00;101143.66;5022757;28;20578;-81
2023/05/10 05:11:12;;;;;;;7.03;4.82;;;;;;;9.30;100.00;101092.28;5027849;28;20065;-77
2023/05/10 05:13:37;;;;;;;5.70;4.30;;;;;;;8.92;100.00;101037.53;5022876;28;20386;-76
2023/05/10 05:16:03;;;;;;;11.70;7.18;;;;;;;9.58;100.00;101142.50;5025986;28;20106;-78
2023/05/10 05:18:28;;;;;;;6.95;4.55;;;;;;;9.60;100.00;101110.22;5029645;28;20520;-79
2023/05/10 05:20:54;;;;;;;10.35;4.60;;;;;;;9.72;100.00;101136.59;5029558;28;20042;-76
2023/05/10 05:23:20;;;;;;;15.57;5.03;;;;;;;9.89;100.00;101139.44;5025665;28;20492;-75
2023/05/10 05:25:46;;;;;;;10.07;5.30;;;;;;;10.17;100.00;101170.44;5035190;28;20599;-77
2023/05/10 05:28:12;;;;;;;37.45;9.30;;;;;;;9.98;100.00;101149.19;5027905;28;20038;-77
2023/05/10 05:30:37;;;;;;;16.85;8.02;;;;;;;10.27;100.00;101186.31;5005379;28;20389;-76
2023/05/10 05:33:03;;;;;;;7.07;4.35;;;;;;;10.19;100.00;101173.97;4999801;28;20042;-75
2023/05/10 05:35:28;;;;;;;7.10;4.20;;;;;;;10.12;100.00;101173.88;5032227;28;20068;-78
2023/05/10 05:37:55;;;;;;;7.18;4.25;;;;;;;10.40;100.00;101170.78;5024572;28;20512;-75
2023/05/10 05:40:21;;;;;;;6.32;4.20;;;;;;;9.87;100.00;101074.75;5025001;28;20053;-78
2023/05/10 05:42:46;;;;;;;13.48;4.15;;;;;;;9.59;100.00;101063.88;5025458;28;20535;-75
2023/05/10 05:45:15;;;;;;;6.18;3.58;;;;;;;10.51;100.00;101164.81;5023043;28;20076;-71
2023/05/10 05:47:40;;;;;;;6.80;3.78;;;;;;;10.11;100.00;101189.56;5025288;28;20049;-71
2023/05/10 05:50:06;;;;;;;5.80;3.60;;;;;;;10.56;100.00;101159.63;5018453;28;20085;-76
2023/05/10 05:52:31;;;;;;;7.10;4.18;;;;;;;10.05;100.00;101042.66;5021564;28;20046;-72
2023/05/10 05:54:57;;;;;;;8.07;3.67;;;;;;;9.72;100.00;101071.06;5004898;28;20076;-74
2023/05/10 05:57:22;;;;;;;21.00;7.15;;;;;;;9.83;100.00;101076.47;5005245;28;20038;-72
2023/05/10 05:59:48;;;;;;;22.38;9.52;;;;;;;10.86;100.00;101195.81;5020839;28;20041;-72
2023/05/10 06:02:13;;;;;;;12.43;7.13;;;;;;;10.34;100.00;101108.59;5023189;28;20468;-74
2023/05/10 06:04:39;;;;;;;7.35;4.63;;;;;;;10.18;100.00;101096.13;5024949;28;20052;-72
2023/05/10 06:07:05;;;;;;;5.57;2.80;;;;;;;11.18;100.00;101213.69;5025847;28;20041;-72
2023/05/10 06:09:30;;;;;;;24.35;8.50;;;;;;;11.26;100.00;101174.34;5018197;28;20033;-71
2023/05/10 06:11:56;;;;;;;5.43;3.65;;;;;;;11.54;100.00;101199.13;5026391;28;20525;-72
2023/05/10 06:14:21;;;;;;;6.78;4.00;;;;;;;11.67;100.00;101197.50;5001223;28;20058;-71
2023/05/10 06:16:47;;;;;;;5.53;3.10;;;;;;;11.27;100.00;101105.19;5004413;28;20075;-73
2023/05/10 06:19:12;;;;;;;6.95;4.22;;;;;;;11.74;100.00;101231.72;5006078;28;20037;-74
2023/05/10 06:21:38;;;;;;;4.82;3.30;;;;;;;11.65;100.00;101243.91;5007176;28;20562;-72
2023/05/10 06:24:05;;;;;;;5.85;2.58;;;;;;;11.62;100.00;101216.75;5006430;28;20219;-73
2023/05/10 06:26:30;;;;;;;5.72;3.03;;;;;;;11.90;100.00;101205.59;5017795;28;20037;-72
2023/05/10 06:28:56;;;;;;;4.80;3.30;;;;;;;11.81;100.00;101201.13;5026295;28;20794;-73
2023/05/10 06:31:21;;;;;;;5.68;3.35;;;;;;;12.10;100.00;101222.38;5022241;28;20042;-73
2023/05/10 06:33:47;;;;;;;6.50;3.97;;;;;;;12.55;100.00;101234.06;5006796;28;20153;-74
2023/05/10 06:36:13;;;;;;;7.57;2.53;;;;;;;12.25;100.00;101146.19;5014266;28;20081;-72
2023/05/10 06:38:38;;;;;;;5.53;2.85;;;;;;;12.91;100.00;101137.63;5016185;28;20141;-74
2023/05/10 06:41:04;;;;;;;4.32;1.95;;;;;;;14.25;100.00;101243.16;5025415;28;20052;-75
2023/05/10 06:43:29;;;;;;;4.40;2.60;;;;;;;14.63;100.00;101276.56;5015776;28;20344;-72
2023/05/10 06:45:55;;;;;;;5.88;2.50;;;;;;;13.95;100.00;101268.69;5003711;28;20033;-72
2023/05/10 06:48:21;;;;;;;3.58;2.30;;;;;;;14.12;100.00;101268.72;5003444;28;20053;-71
2023/05/10 06:50:46;;;;;;;4.18;2.55;;;;;;;14.53;100.00;101258.06;5020933;28;20103;-74
2023/05/10 06:53:13;;;;;;;5.80;3.03;;;;;;;14.81;100.00;101243.94;5023668;28;20091;-72
2023/05/10 06:55:38;;;;;;;5.30;2.90;;;;;;;14.83;100.00;101256.25;5023370;28;20057;-72
2023/05/10 06:58:04;;;;;;;4.60;2.53;;;;;;;14.53;100.00;101181.47;5040684;28;20037;-74
2023/05/10 07:00:30;;;;;;;3.28;2.20;;;;;;;14.10;100.00;101257.28;5025925;28;20037;-72
2023/05/10 07:02:55;;;;;;;5.28;2.47;;;;;;;14.32;100.00;101280.09;5033326;28;20571;-72
2023/05/10 07:05:21;;;;;;;6.82;2.85;;;;;;;14.25;100.00;101185.09;5025359;28;21836;-72
2023/05/10 07:07:47;;;;;;;5.47;2.53;;;;;;;14.57;100.00;101246.66;5019185;28;20062;-73
2023/05/10 07:10:13;;;;;;;2.78;1.92;;;;;;;14.60;100.00;101258.09;5003971;28;20038;-72
2023/05/10 07:12:39;;;;;;;10.00;2.58;;;;;;;14.23;100.00;101247.56;5003598;28;20073;-72
2023/05/10 07:15:05;;;;;;;5.50;3.40;;;;;;;13.47;100.00;101176.38;5022336;28;20053;-73
2023/05/10 07:17:33;;;;;;;4.68;2.95;;;;;;;13.62;100.00;101191.31;5024565;28;20136;-71
2023/05/10 07:19:58;;;;;;;4.57;2.80;;;;;;;13.13;100.00;101178.06;5024999;28;20096;-73
2023/05/10 07:22:24;;;;;;;4.25;2.38;;;;;;;13.30;100.00;101164.97;5025541;28;20057;-73
2023/05/10 07:24:50;;;;;;;3.35;1.75;;;;;;;14.32;100.00;101272.19;5019049;28;20030;-73
2023/05/10 07:27:15;;;;;;;4.03;2.60;;;;;;;13.00;100.00;101184.22;5029413;28;20044;-73
2023/05/10 07:29:40;;;;;;;3.47;1.58;;;;;;;13.82;100.00;101272.25;5013758;28;20046;-74
2023/05/10 07:32:06;;;;;;;3.42;2.20;;;;;;;13.93;100.00;101242.34;5013117;28;20879;-77
2023/05/10 07:34:32;;;;;;;3.38;2.00;;;;;;;14.06;100.00;101164.03;5006990;28;20053;-76
2023/05/10 07:37:01;;;;;;;5.25;3.40;;;;;;;12.86;100.00;101165.72;5014950;28;20037;-78
2023/05/10 07:39:27;;;;;;;5.82;1.83;;;;;;;13.80;100.00;101150.88;5003836;28;20025;-78
2023/05/10 07:41:53;;;;;;;4.93;2.70;;;;;;;13.51;100.00;101185.19;5016174;28;20061;-78
2023/05/10 07:44:20;;;;;;;4.07;2.35;;;;;;;14.49;100.00;101234.31;5022086;28;20034;-76
2023/05/10 07:46:46;;;;;;;4.97;2.78;;;;;;;13.74;100.00;101264.28;5027324;28;20091;-74
2023/05/10 07:49:11;;;;;;;5.90;2.63;;;;;;;13.85;100.00;101156.16;5028661;28;20065;-76
2023/05/10 07:51:36;;;;;;;3.33;2.00;;;;;;;14.44;100.00;101283.63;5028052;28;20041;-74
2023/05/10 07:54:02;;;;;;;2.30;1.30;;;;;;;14.95;100.00;101255.31;5028608;28;20497;-75
2023/05/10 07:56:32;;;;;;;4.75;2.15;;;;;;;15.19;100.00;101270.16;5015396;28;20046;-75
2023/05/10 07:58:58;;;;;;;8.95;3.50;;;;;;;14.59;100.00;101257.22;5009194;28;20398;-80
2023/05/10 08:01:24;;;;;;;5.05;2.72;;;;;;;14.70;100.00;101173.53;5009548;28;20072;-75
2023/05/10 08:03:51;;;;;;;3.63;2.03;;;;;;;14.09;100.00;101181.59;5028128;28;20068;-75
2023/05/10 08:06:18;;;;;;;2.45;1.60;;;;;;;14.56;100.00;101228.16;5023592;28;20052;-75
2023/05/10 08:08:48;;;;;;;6.75;2.42;;;;;;;14.91;100.00;101269.41;5027730;28;20560;-76
2023/05/10 08:11:14;;;;;;;3.75;2.50;;;;;;;14.45;99.05;101296.84;5028739;28;20060;-76
2023/05/10 08:13:40;;;;;;;2.00;1.25;;;;;;;14.17;100.00;101192.16;5017078;28;20821;-76
2023/05/10 08:16:07;;;;;;;6.25;1.63;;;;;;;14.52;100.00;101160.38;5007460;28;20051;-75
2023/05/10 08:18:32;;;;;;;2.75;1.55;;;;;;;14.82;100.00;101183.16;5008918;28;20120;-76
2023/05/10 08:20:57;;;;;;;6.75;2.58;;;;;;;14.53;99.38;101180.59;5017739;28;20472;-76
2023/05/10 08:23:23;;;;;;;4.43;1.65;;;;;;;14.55;99.85;101290.66;5026112;28;20045;-74
2023/05/10 08:25:48;;;;;;;2.97;1.45;;;;;;;14.15;97.47;101187.75;5020798;28;20070;-73
2023/05/10 08:28:14;;;;;;;3.20;2.15;;;;;;;14.95;100.00;101199.81;5000806;28;20084;-74
2023/05/10 08:30:40;;;;;;;3.13;1.58;;;;;;;14.97;97.32;101301.13;5007720;28;20529;-73
2023/05/10 08:33:05;;;;;;;4.75;2.47;;;;;;;15.37;100.00;101200.44;5004040;28;20416;-74
2023/05/10 08:35:31;;;;;;;4.60;2.65;;;;;;;14.65;93.29;101206.13;5006370;28;20065;-72
2023/05/10 08:37:56;;;;;;;3.50;2.33;;;;;;;14.68;95.61;101108.34;4997503;28;20497;-74
2023/05/10 08:40:26;;;;;;;5.45;2.15;;;;;;;15.89;97.88;101263.56;4999468;28;20041;-71
2023/05/10 08:43:01;;;;;;;3.08;1.67;;;;;;;14.48;100.00;101183.25;4997971;28;20066;-72
2023/05/10 08:45:31;;;;;;;4.65;2.38;;;;;;;15.63;100.00;101184.34;4998463;28;20099;-74
2023/05/10 08:47:59;;;;;;;4.68;2.38;;;;;;;15.43;89.98;101314.13;5007324;28;20120;-72
2023/05/10 08:50:25;;;;;;;4.25;1.90;;;;;;;14.54;85.47;101126.94;5001030;28;20139;-71
2023/05/10 08:52:55;;;;;;;4.57;2.63;;;;;;;14.95;95.65;101294.97;5004940;28;20073;-73
2023/05/10 08:55:20;;;;;;;2.88;1.73;;;;;;;15.44;93.02;101214.50;5005442;28;20042;-73
2023/05/10 08:57:46;;;;;;;4.68;2.25;;;;;;;16.18;89.85;101265.09;5004307;28;20131;-76
2023/05/10 09:00:13;;;;;;;6.72;2.65;;;;;;;16.68;79.38;101268.97;5005996;28;20046;-76
2023/05/10 09:02:39;;;;;;;5.63;2.22;;;;;;;16.63;78.36;101216.03;5012108;28;20515;-78
2023/05/10 09:05:06;;;;;;;2.88;1.52;;;;;;;14.80;71.41;101107.41;5001386;28;20094;-76
2023/05/10 09:07:32;;;;;;;3.95;1.92;;;;;;;16.32;75.45;101289.69;5000091;28;20146;-75
2023/05/10 09:09:58;;;;;;;4.13;2.50;;;;;;;16.24;89.58;101162.59;4997063;28;20493;-78
2023/05/10 09:12:24;;;;;;;2.95;1.45;;;;;;;16.18;93.18;101273.91;5005578;28;20129;-76
2023/05/10 09:14:52;;;;;;;3.17;1.98;;;;;;;17.22;86.37;101271.84;4997445;28;20069;-77
2023/05/10 09:17:17;;;;;;;2.97;2.13;;;;;;;17.56;81.50;101263.44;5003223;28;20045;-77
2023/05/10 09:19:45;;;;;;;2.17;1.35;;;;;;;17.93;68.00;101172.56;5002496;28;20042;-76
2023/05/10 09:22:11;;;;;;;4.03;1.95;;;;;;;17.98;69.79;101162.75;5003039;28;20394;-77
2023/05/10 09:24:42;;;;;;;3.45;2.28;;;;;;;18.67;65.57;101256.19;5003071;28;20033;-75
2023/05/10 09:27:07;;;;;;;3.72;2.08;;;;;;;17.61;71.50;101131.53;4994811;28;20044;-77
2023/05/10 09:29:42;;;;;;;4.55;2.10;;;;;;;18.16;72.14;101253.63;5005145;28;20049;-77
2023/05/10 09:32:08;;;;;;;2.45;1.63;;;;;;;18.92;70.25;101262.81;4989625;28;20246;-75
2023/05/10 09:34:35;;;;;;;2.65;1.55;;;;;;;18.29;63.52;101221.50;5001018;28;20042;-79
2023/05/10 09:37:03;;;;;;;4.20;1.90;;;;;;;17.33;71.17;101141.72;5020049;28;20398;-73
2023/05/10 09:39:37;;;;;;;4.13;2.42;;;;;;;18.05;70.03;101175.03;5001004;28;20088;-73
2023/05/10 09:42:05;;;;;;;9.82;3.00;;;;;;;17.65;67.29;101255.31;5002929;28;20181;-74
2023/05/10 09:44:32;;;;;;;5.03;2.50;;;;;;;18.20;67.02;101263.28;5000345;28;20053;-74
2023/05/10 09:46:59;;;;;;;6.28;2.28;;;;;;;15.16;75.49;101209.38;5006114;28;20195;-74
2023/05/10 09:49:24;;;;;;;2.58;1.67;;;;;;;15.46;89.48;101139.53;5006013;28;20069;-75
2023/05/10 09:52:04;;;;;;;8.45;4.30;;;;;;;15.83;98.07;101152.47;5006147;28;20434;-74
2023/05/10 09:54:30;;;;;;;4.15;2.60;;;;;;;15.78;100.00;101154.25;5001726;28;20046;-73
2023/05/10 09:56:56;;;;;;;3.55;2.03;;;;;;;14.74;100.00;101245.72;5005765;28;20081;-73
2023/05/10 09:59:24;;;;;;;50.20;29.30;;;;;;;15.09;100.00;101220.88;5005763;28;20096;-74
2023/05/10 10:01:51;;;;;;;29.33;16.88;;;;;;;15.58;100.00;101250.53;4996093;28;20096;-75
2023/05/10 10:04:17;;;;;;;6.28;2.75;;;;;;;14.77;100.00;101241.31;4999171;28;20076;-75
2023/05/10 10:06:42;;;;;;;2.55;1.55;;;;;;;13.37;100.00;101124.56;4999074;28;20796;-76
2023/05/10 10:09:09;;;;;;;3.58;2.55;;;;;;;14.76;100.00;101213.13;5004420;28;20046;-78
2023/05/10 10:11:36;;;;;;;3.85;2.05;;;;;;;14.54;100.00;101138.38;5017020;28;20183;-76
2023/05/10 10:14:02;;;;;;;2.90;1.80;;;;;;;15.14;100.00;101224.38;5033971;28;20048;-77
2023/05/10 10:16:31;;;;;;;4.25;1.90;;;;;;;14.93;100.00;101220.94;5027072;28;20492;-75
2023/05/10 10:18:57;;;;;;;6.78;2.50;;;;;;;14.97;100.00;101196.28;5024878;28;20022;-73
2023/05/10 10:21:23;;;;;;;4.18;1.58;;;;;;;14.87;100.00;101238.63;5022834;28;20114;-75
2023/05/10 10:23:49;;;;;;;4.07;3.30;;;;;;;15.06;100.00;101236.78;5010511;28;20088;-77
2023/05/10 10:26:17;;;;;;;2.55;1.58;;;;;;;14.70;100.00;101191.13;5005213;28;20037;-76
2023/05/10 10:29:06;;;;;;;3.42;1.88;;;;;;;14.30;100.00;101221.16;5002109;28;20050;-76
2023/05/10 10:31:45;;;;;;;6.70;3.10;;;;;;;14.70;99.66;101242.22;5001687;28;20112;-76
2023/05/10 10:34:29;;;;;;;5.40;2.22;;;;;;;14.65;96.48;101227.25;5011393;28;20106;-74
2023/05/10 10:37:12;;;;;;;3.30;1.73;;;;;;;14.83;98.60;101237.75;5004090;28;20045;-73
2023/05/10 10:39:37;;;;;;;6.40;3.03;;;;;;;14.27;95.97;101123.50;4996254;28;20093;-74
2023/05/10 10:42:04;;;;;;;6.75;2.22;;;;;;;14.78;100.00;101166.44;5006050;28;20049;-75
2023/05/10 10:44:36;;;;;;;2.08;1.23;;;;;;;15.22;98.16;101240.19;4997647;28;20038;-76
2023/05/10 10:47:29;;;;;;;2.10;1.50;;;;;;;15.27;95.52;101249.88;5013311;28;20438;-75
2023/05/10 10:49:58;;;;;;;3.20;1.88;;;;;;;15.41;99.47;101247.13;5005211;28;20056;-76
2023/05/10 10:52:32;;;;;;;3.35;1.75;;;;;;;15.27;100.00;101252.50;5005543;28;20057;-77
2023/05/10 10:55:12;;;;;;;3.30;2.33;;;;;;;14.49;100.00;101208.81;5006704;28;20033;-76
2023/05/10 10:57:41;;;;;;;3.22;2.05;;;;;;;14.76;100.00;101236.88;5004096;28;20042;-76
2023/05/10 11:00:30;;;;;;;2.70;1.50;;;;;;;15.17;100.00;101225.25;5015512;28;20527;-78
2023/05/10 11:03:14;;;;;;;4.85;2.05;;;;;;;15.23;100.00;101226.97;5027275;28;20045;-75
2023/05/10 11:05:43;;;;;;;;;;;;;;;15.44;98.03;101235.66;5010485;28;20050;-74
2023/05/10 11:08:28;;;;;;;6.65;2.65;;;;;;;15.46;91.87;101225.94;5009972;28;20001;-78
2023/05/10 11:10:59;;;;;;;4.97;2.53;;;;;;;14.67;92.29;101234.28;4998393;28;20061;-73
2023/05/10 11:13:31;;;;;;;3.97;1.90;;;;;;;15.02;95.38;101192.75;5008124;28;20049;-75
2023/05/10 11:15:58;;;;;;;3.03;2.00;;;;;;;14.91;93.76;101206.91;5022465;28;20120;-75
2023/05/10 11:18:25;;;;;;;11.05;2.47;;;;;;;14.35;98.77;101090.03;5028197;28;20071;-77
2023/05/10 11:20:52;;;;;;;4.88;2.28;;;;;;;14.25;93.74;101127.03;5012811;28;20065;-74
2023/05/10 11:23:17;;;;;;;6.00;2.22;;;;;;;14.96;96.95;101220.97;5005644;28;20103;-79
2023/05/10 11:25:47;;;;;;;4.72;2.25;;;;;;;15.14;91.20;101216.44;5015010;28;20091;-75